sensor_id;sensor_type;location;lat;lon;timestamp;pressure;altitude;pressure_sealevel;temperature;humidity
55066;BME280;40964;42.114;24.220;2023-04-07T00:00:20;97613.25;;;5.20;48.56
55066;BME280;40964;42.114;24.220;2023-04-07T00:02:45;97614.88;;;5.21;48.41
55066;BME280;40964;42.114;24.220;2023-04-07T00:05:11;97575.28;;;4.89;48.69
55066;BME280;40964;42.114;24.220;2023-04-07T00:07:37;97625.44;;;5.12;48.37
55066;BME280;40964;42.114;24.220;2023-04-07T00:10:05;97615.44;;;5.16;46.57
55066;BME280;40964;42.114;24.220;2023-04-07T00:12:31;97627.28;;;5.19;46.41
55066;BME280;40964;42.114;24.220;2023-04-07T00:14:57;97616.25;;;5.17;46.07
55066;BME280;40964;42.114;24.220;2023-04-07T00:17:22;97621.72;;;5.22;47.12
55066;BME280;40964;42.114;24.220;2023-04-07T00:19:47;97619.72;;;5.24;46.31
55066;BME280;40964;42.114;24.220;2023-04-07T00:22:13;97617.72;;;5.26;47.42
55066;BME280;40964;42.114;24.220;2023-04-07T00:24:38;97624.94;;;5.24;46.79
55066;BME280;40964;42.114;24.220;2023-04-07T00:27:04;97623.75;;;5.26;46.29
55066;BME280;40964;42.114;24.220;2023-04-07T00:29:29;97621.34;;;5.25;47.91
55066;BME280;40964;42.114;24.220;2023-04-07T00:31:55;97618.41;;;5.34;47.02
55066;BME280;40964;42.114;24.220;2023-04-07T00:34:20;97621.81;;;5.35;47.08
55066;BME280;40964;42.114;24.220;2023-04-07T00:36:46;97619.47;;;5.40;49.27
55066;BME280;40964;42.114;24.220;2023-04-07T00:39:19;97617.81;;;5.32;48.73
55066;BME280;40964;42.114;24.220;2023-04-07T00:41:45;97609.09;;;5.25;49.47
55066;BME280;40964;42.114;24.220;2023-04-07T00:44:11;97626.66;;;5.38;49.21
55066;BME280;40964;42.114;24.220;2023-04-07T00:46:37;97630.38;;;5.29;50.23
55066;BME280;40964;42.114;24.220;2023-04-07T00:49:02;97629.38;;;5.30;50.59
55066;BME280;40964;42.114;24.220;2023-04-07T00:51:28;97631.84;;;5.31;50.57
55066;BME280;40964;42.114;24.220;2023-04-07T00:53:54;97610.09;;;5.24;49.59
55066;BME280;40964;42.114;24.220;2023-04-07T00:56:20;97623.06;;;5.39;49.94
55066;BME280;40964;42.114;24.220;2023-04-07T00:58:45;97632.63;;;5.32;49.72
55066;BME280;40964;42.114;24.220;2023-04-07T01:01:28;97622.94;;;5.26;50.80
55066;BME280;40964;42.114;24.220;2023-04-07T01:04:04;97623.06;;;5.18;50.46
55066;BME280;40964;42.114;24.220;2023-04-07T01:06:32;97619.91;;;5.22;52.24
55066;BME280;40964;42.114;24.220;2023-04-07T01:11:31;97620.97;;;5.06;51.11
55066;BME280;40964;42.114;24.220;2023-04-07T01:13:59;97618.09;;;5.01;50.85
55066;BME280;40964;42.114;24.220;2023-04-07T01:16:35;97623.88;;;4.97;50.96
55066;BME280;40964;42.114;24.220;2023-04-07T01:19:57;97624.31;;;5.00;51.34
55066;BME280;40964;42.114;24.220;2023-04-07T01:21:56;97623.00;;;4.90;52.06
55066;BME280;40964;42.114;24.220;2023-04-07T01:27:35;97633.00;;;4.86;53.37
55066;BME280;40964;42.114;24.220;2023-04-07T01:30:02;97633.22;;;4.91;52.68
55066;BME280;40964;42.114;24.220;2023-04-07T01:32:30;97627.63;;;4.94;53.34
55066;BME280;40964;42.114;24.220;2023-04-07T01:34:57;97628.72;;;5.00;54.77
55066;BME280;40964;42.114;24.220;2023-04-07T01:37:25;97625.19;;;5.07;55.22
55066;BME280;40964;42.114;24.220;2023-04-07T01:39:52;97616.38;;;5.08;56.03
55066;BME280;40964;42.114;24.220;2023-04-07T01:42:19;97620.53;;;5.24;56.44
55066;BME280;40964;42.114;24.220;2023-04-07T01:44:45;97621.94;;;5.27;55.47
55066;BME280;40964;42.114;24.220;2023-04-07T01:47:12;97628.22;;;5.32;55.49
55066;BME280;40964;42.114;24.220;2023-04-07T01:49:39;97616.31;;;5.23;54.97
55066;BME280;40964;42.114;24.220;2023-04-07T01:52:06;97615.25;;;5.18;55.86
55066;BME280;40964;42.114;24.220;2023-04-07T01:54:33;97627.28;;;5.19;56.24
55066;BME280;40964;42.114;24.220;2023-04-07T01:56:58;97621.84;;;5.13;58.61
55066;BME280;40964;42.114;24.220;2023-04-07T01:59:25;97638.63;;;5.11;59.88
55066;BME280;40964;42.114;24.220;2023-04-07T02:01:51;97629.41;;;5.08;58.80
55066;BME280;40964;42.114;24.220;2023-04-07T02:04:26;97631.63;;;5.11;57.91
55066;BME280;40964;42.114;24.220;2023-04-07T02:06:58;97616.06;;;4.97;54.30
55066;BME280;40964;42.114;24.220;2023-04-07T02:09:26;97629.16;;;5.03;47.11
55066;BME280;40964;42.114;24.220;2023-04-07T02:11:56;97636.50;;;5.15;48.29
55066;BME280;40964;42.114;24.220;2023-04-07T02:14:22;97638.28;;;5.14;48.26
55066;BME280;40964;42.114;24.220;2023-04-07T02:16:48;97634.41;;;5.10;48.54
55066;BME280;40964;42.114;24.220;2023-04-07T02:19:15;97636.50;;;5.15;47.56
55066;BME280;40964;42.114;24.220;2023-04-07T02:21:41;97624.88;;;5.17;48.51
55066;BME280;40964;42.114;24.220;2023-04-07T02:24:10;97630.09;;;5.17;46.72
55066;BME280;40964;42.114;24.220;2023-04-07T02:26:36;97624.50;;;5.20;46.95
55066;BME280;40964;42.114;24.220;2023-04-07T02:29:02;97626.47;;;5.18;47.32
55066;BME280;40964;42.114;24.220;2023-04-07T02:31:28;97626.47;;;5.18;49.79
55066;BME280;40964;42.114;24.220;2023-04-07T02:33:53;97633.69;;;5.16;52.62
55066;BME280;40964;42.114;24.220;2023-04-07T02:36:18;97628.06;;;5.12;54.17
55066;BME280;40964;42.114;24.220;2023-04-07T02:38:44;97632.88;;;5.16;54.41
55066;BME280;40964;42.114;24.220;2023-04-07T02:41:09;97630.50;;;5.21;52.08
55066;BME280;40964;42.114;24.220;2023-04-07T02:43:35;97625.13;;;5.22;52.44
55066;BME280;40964;42.114;24.220;2023-04-07T02:46:00;97626.78;;;5.30;52.85
55066;BME280;40964;42.114;24.220;2023-04-07T02:48:26;97625.75;;;5.24;53.40
55066;BME280;40964;42.114;24.220;2023-04-07T02:50:51;97627.06;;;5.13;53.18
55066;BME280;40964;42.114;24.220;2023-04-07T02:53:17;97626.59;;;5.10;53.86
55066;BME280;40964;42.114;24.220;2023-04-07T02:55:42;97635.72;;;4.99;53.21
55066;BME280;40964;42.114;24.220;2023-04-07T02:58:07;97634.22;;;4.90;52.97
55066;BME280;40964;42.114;24.220;2023-04-07T03:00:33;97630.50;;;4.99;53.18
55066;BME280;40964;42.114;24.220;2023-04-07T03:02:59;97626.41;;;5.11;53.24
55066;BME280;40964;42.114;24.220;2023-04-07T03:05:24;97631.50;;;5.20;54.62
55066;BME280;40964;42.114;24.220;2023-04-07T03:07:49;97632.97;;;5.22;55.15
55066;BME280;40964;42.114;24.220;2023-04-07T03:10:15;97632.75;;;5.24;56.14
55066;BME280;40964;42.114;24.220;2023-04-07T03:12:42;97633.63;;;5.31;54.63
55066;BME280;40964;42.114;24.220;2023-04-07T03:15:08;97625.25;;;5.35;52.78
55066;BME280;40964;42.114;24.220;2023-04-07T03:17:33;97623.56;;;5.28;54.07
55066;BME280;40964;42.114;24.220;2023-04-07T03:19:59;97629.66;;;5.35;54.40
55066;BME280;40964;42.114;24.220;2023-04-07T03:22:25;97625.97;;;5.08;55.59
55066;BME280;40964;42.114;24.220;2023-04-07T03:24:50;97632.22;;;4.92;52.81
55066;BME280;40964;42.114;24.220;2023-04-07T03:27:16;97638.06;;;4.94;51.80
55066;BME280;40964;42.114;24.220;2023-04-07T03:29:41;97641.13;;;4.98;52.28
55066;BME280;40964;42.114;24.220;2023-04-07T03:35:05;97643.81;;;5.04;54.08
55066;BME280;40964;42.114;24.220;2023-04-07T03:37:30;97643.91;;;4.96;54.99
55066;BME280;40964;42.114;24.220;2023-04-07T03:39:56;97640.03;;;4.92;54.38
55066;BME280;40964;42.114;24.220;2023-04-07T03:42:21;97633.41;;;4.90;55.00
55066;BME280;40964;42.114;24.220;2023-04-07T03:44:47;97645.53;;;4.97;56.15
55066;BME280;40964;42.114;24.220;2023-04-07T03:47:12;97645.94;;;5.01;56.69
55066;BME280;40964;42.114;24.220;2023-04-07T03:49:37;97644.16;;;5.01;56.37
55066;BME280;40964;42.114;24.220;2023-04-07T03:52:04;97650.81;;;5.04;57.08
55066;BME280;40964;42.114;24.220;2023-04-07T03:54:29;97641.63;;;5.08;56.13
55066;BME280;40964;42.114;24.220;2023-04-07T03:56:55;97648.06;;;5.12;56.27
55066;BME280;40964;42.114;24.220;2023-04-07T03:59:21;97644.53;;;5.20;55.26
55066;BME280;40964;42.114;24.220;2023-04-07T04:01:47;97647.72;;;5.15;55.37
55066;BME280;40964;42.114;24.220;2023-04-07T04:04:12;97645.91;;;5.16;55.64
55066;BME280;40964;42.114;24.220;2023-04-07T04:06:38;97651.31;;;5.14;55.28
55066;BME280;40964;42.114;24.220;2023-04-07T04:09:03;97648.72;;;5.14;55.63
55066;BME280;40964;42.114;24.220;2023-04-07T04:11:29;97648.91;;;5.12;56.06
55066;BME280;40964;42.114;24.220;2023-04-07T04:13:56;97647.53;;;5.17;56.58
55066;BME280;40964;42.114;24.220;2023-04-07T04:16:21;97661.00;;;5.20;56.96
55066;BME280;40964;42.114;24.220;2023-04-07T04:18:46;97658.84;;;5.24;56.46
55066;BME280;40964;42.114;24.220;2023-04-07T04:21:12;97653.00;;;5.22;56.41
55066;BME280;40964;42.114;24.220;2023-04-07T04:23:37;97660.13;;;5.13;57.91
55066;BME280;40964;42.114;24.220;2023-04-07T04:26:03;97664.09;;;5.09;58.50
55066;BME280;40964;42.114;24.220;2023-04-07T04:28:29;97665.00;;;5.01;60.14
55066;BME280;40964;42.114;24.220;2023-04-07T04:30:54;97661.78;;;4.99;60.91
55066;BME280;40964;42.114;24.220;2023-04-07T04:33:20;97671.03;;;5.02;60.88
55066;BME280;40964;42.114;24.220;2023-04-07T04:35:45;97674.44;;;5.02;60.75
55066;BME280;40964;42.114;24.220;2023-04-07T04:38:11;97673.91;;;5.07;60.77
55066;BME280;40964;42.114;24.220;2023-04-07T04:40:37;97666.88;;;5.07;58.83
55066;BME280;40964;42.114;24.220;2023-04-07T04:43:02;97677.38;;;5.14;59.24
55066;BME280;40964;42.114;24.220;2023-04-07T04:45:32;97673.66;;;5.23;59.63
55066;BME280;40964;42.114;24.220;2023-04-07T04:47:57;97660.19;;;5.20;60.47
55066;BME280;40964;42.114;24.220;2023-04-07T04:50:22;97667.66;;;5.23;61.03
55066;BME280;40964;42.114;24.220;2023-04-07T04:52:48;97686.13;;;5.28;61.35
55066;BME280;40964;42.114;24.220;2023-04-07T04:55:13;97679.25;;;5.41;60.87
55066;BME280;40964;42.114;24.220;2023-04-07T04:57:39;97666.03;;;5.43;60.69
55066;BME280;40964;42.114;24.220;2023-04-07T05:00:06;97691.00;;;5.52;60.26
55066;BME280;40964;42.114;24.220;2023-04-07T05:02:32;97689.88;;;5.61;60.11
55066;BME280;40964;42.114;24.220;2023-04-07T05:04:58;97689.13;;;5.67;59.76
55066;BME280;40964;42.114;24.220;2023-04-07T05:07:26;97688.38;;;5.74;58.89
55066;BME280;40964;42.114;24.220;2023-04-07T05:09:51;97688.81;;;5.77;58.44
55066;BME280;40964;42.114;24.220;2023-04-07T05:12:17;97694.22;;;5.76;59.02
55066;BME280;40964;42.114;24.220;2023-04-07T05:14:43;97695.31;;;5.88;58.69
55066;BME280;40964;42.114;24.220;2023-04-07T05:17:08;97692.22;;;5.99;56.89
55066;BME280;40964;42.114;24.220;2023-04-07T05:19:34;97702.91;;;6.04;56.04
55066;BME280;40964;42.114;24.220;2023-04-07T05:21:59;97695.94;;;6.11;55.46
55066;BME280;40964;42.114;24.220;2023-04-07T05:24:27;97688.47;;;6.08;54.16
55066;BME280;40964;42.114;24.220;2023-04-07T05:26:53;97703.44;;;6.21;53.88
55066;BME280;40964;42.114;24.220;2023-04-07T05:29:18;97708.31;;;6.31;53.65
55066;BME280;40964;42.114;24.220;2023-04-07T05:31:44;97705.16;;;6.42;51.78
55066;BME280;40964;42.114;24.220;2023-04-07T05:34:10;97713.06;;;6.48;51.04
55066;BME280;40964;42.114;24.220;2023-04-07T05:36:35;97710.91;;;6.59;49.67
55066;BME280;40964;42.114;24.220;2023-04-07T05:39:01;97718.72;;;6.59;49.00
55066;BME280;40964;42.114;24.220;2023-04-07T05:41:26;97710.50;;;6.62;48.04
55066;BME280;40964;42.114;24.220;2023-04-07T05:43:51;97711.16;;;6.70;47.44
55066;BME280;40964;42.114;24.220;2023-04-07T05:46:17;97704.06;;;6.64;47.49
55066;BME280;40964;42.114;24.220;2023-04-07T05:48:42;97713.84;;;6.90;47.08
55066;BME280;40964;42.114;24.220;2023-04-07T05:51:08;97724.41;;;7.10;45.53
55066;BME280;40964;42.114;24.220;2023-04-07T05:53:33;97717.53;;;7.09;45.82
55066;BME280;40964;42.114;24.220;2023-04-07T05:55:59;97715.28;;;6.99;45.63
55066;BME280;40964;42.114;24.220;2023-04-07T05:58:24;97721.31;;;7.00;46.50
55066;BME280;40964;42.114;24.220;2023-04-07T06:00:49;97724.13;;;6.98;45.58
55066;BME280;40964;42.114;24.220;2023-04-07T06:03:15;97714.16;;;7.15;45.33
55066;BME280;40964;42.114;24.220;2023-04-07T06:05:41;97723.06;;;7.34;45.27
55066;BME280;40964;42.114;24.220;2023-04-07T06:08:10;97724.09;;;7.53;44.03
55066;BME280;40964;42.114;24.220;2023-04-07T06:10:36;97717.84;;;7.54;45.18
55066;BME280;40964;42.114;24.220;2023-04-07T06:13:01;97712.69;;;7.74;46.15
55066;BME280;40964;42.114;24.220;2023-04-07T06:15:26;97712.88;;;7.79;44.39
55066;BME280;40964;42.114;24.220;2023-04-07T06:17:52;97722.75;;;7.83;44.30
55066;BME280;40964;42.114;24.220;2023-04-07T06:20:17;97719.53;;;7.94;45.76
55066;BME280;40964;42.114;24.220;2023-04-07T06:22:46;97725.75;;;7.87;43.36
55066;BME280;40964;42.114;24.220;2023-04-07T06:25:11;97727.97;;;7.96;46.27
55066;BME280;40964;42.114;24.220;2023-04-07T06:27:37;97721.53;;;8.06;43.84
55066;BME280;40964;42.114;24.220;2023-04-07T06:30:04;97726.16;;;8.17;44.67
55066;BME280;40964;42.114;24.220;2023-04-07T06:32:30;97733.84;;;8.18;43.48
55066;BME280;40964;42.114;24.220;2023-04-07T06:34:55;97728.38;;;8.26;44.87
55066;BME280;40964;42.114;24.220;2023-04-07T06:37:21;97730.81;;;8.28;44.30
55066;BME280;40964;42.114;24.220;2023-04-07T06:39:49;97732.63;;;8.28;44.31
55066;BME280;40964;42.114;24.220;2023-04-07T06:42:14;97727.38;;;8.41;43.86
55066;BME280;40964;42.114;24.220;2023-04-07T06:44:40;97735.03;;;8.42;43.94
55066;BME280;40964;42.114;24.220;2023-04-07T06:47:05;97724.59;;;8.36;44.23
55066;BME280;40964;42.114;24.220;2023-04-07T06:49:31;97719.53;;;8.41;44.15
55066;BME280;40964;42.114;24.220;2023-04-07T06:51:57;97729.38;;;8.52;43.65
55066;BME280;40964;42.114;24.220;2023-04-07T06:54:22;97730.75;;;8.68;43.74
55066;BME280;40964;42.114;24.220;2023-04-07T06:56:48;97731.97;;;8.72;43.09
55066;BME280;40964;42.114;24.220;2023-04-07T06:59:13;97730.75;;;8.68;42.49
55066;BME280;40964;42.114;24.220;2023-04-07T07:01:38;97733.16;;;8.82;41.50
55066;BME280;40964;42.114;24.220;2023-04-07T07:04:04;97731.47;;;8.95;43.82
55066;BME280;40964;42.114;24.220;2023-04-07T07:06:32;97734.44;;;9.12;42.50
55066;BME280;40964;42.114;24.220;2023-04-07T07:08:58;97736.38;;;9.36;42.66
55066;BME280;40964;42.114;24.220;2023-04-07T07:11:24;97739.56;;;9.45;40.61
55066;BME280;40964;42.114;24.220;2023-04-07T07:13:50;97735.66;;;9.54;39.66
55066;BME280;40964;42.114;24.220;2023-04-07T07:16:15;97729.94;;;9.63;40.83
55066;BME280;40964;42.114;24.220;2023-04-07T07:18:41;97735.22;;;9.88;40.97
55066;BME280;40964;42.114;24.220;2023-04-07T07:21:06;97734.56;;;10.00;39.47
55066;BME280;40964;42.114;24.220;2023-04-07T07:23:32;97726.28;;;9.71;40.50
55066;BME280;40964;42.114;24.220;2023-04-07T07:25:58;97726.81;;;9.80;39.56
55066;BME280;40964;42.114;24.220;2023-04-07T07:28:24;97726.13;;;9.91;39.87
55066;BME280;40964;42.114;24.220;2023-04-07T07:30:49;97738.25;;;9.92;39.15
55066;BME280;40964;42.114;24.220;2023-04-07T07:33:15;97724.72;;;9.88;38.29
55066;BME280;40964;42.114;24.220;2023-04-07T07:35:41;97717.78;;;10.26;38.16
55066;BME280;40964;42.114;24.220;2023-04-07T07:38:06;97719.50;;;10.57;38.69
55066;BME280;40964;42.114;24.220;2023-04-07T07:40:32;97720.78;;;10.72;38.25
55066;BME280;40964;42.114;24.220;2023-04-07T07:42:59;97710.72;;;10.26;36.02
55066;BME280;40964;42.114;24.220;2023-04-07T07:45:25;97720.00;;;10.47;36.91
55066;BME280;40964;42.114;24.220;2023-04-07T07:47:50;97715.53;;;10.29;35.97
55066;BME280;40964;42.114;24.220;2023-04-07T07:50:16;97717.72;;;10.32;37.15
55066;BME280;40964;42.114;24.220;2023-04-07T07:52:41;97709.78;;;10.57;37.80
55066;BME280;40964;42.114;24.220;2023-04-07T07:55:07;97717.34;;;10.72;36.07
55066;BME280;40964;42.114;24.220;2023-04-07T07:57:33;97715.56;;;11.02;36.09
55066;BME280;40964;42.114;24.220;2023-04-07T07:59:58;97718.69;;;11.11;35.45
55066;BME280;40964;42.114;24.220;2023-04-07T08:02:24;97712.06;;;11.08;37.00
55066;BME280;40964;42.114;24.220;2023-04-07T08:04:58;97708.06;;;11.36;36.89
55066;BME280;40964;42.114;24.220;2023-04-07T08:07:23;97706.41;;;11.53;37.42
55066;BME280;40964;42.114;24.220;2023-04-07T08:09:49;97709.56;;;11.44;38.00
55066;BME280;40964;42.114;24.220;2023-04-07T08:12:15;97705.00;;;11.21;36.54
55066;BME280;40964;42.114;24.220;2023-04-07T08:14:42;97702.25;;;11.46;35.89
55066;BME280;40964;42.114;24.220;2023-04-07T08:17:07;97707.31;;;11.59;36.16
55066;BME280;40964;42.114;24.220;2023-04-07T08:19:33;97703.22;;;11.63;35.58
55066;BME280;40964;42.114;24.220;2023-04-07T08:21:58;97699.56;;;12.06;36.10
55066;BME280;40964;42.114;24.220;2023-04-07T08:24:24;97704.78;;;11.82;35.06
55066;BME280;40964;42.114;24.220;2023-04-07T08:26:50;97702.19;;;12.06;36.52
55066;BME280;40964;42.114;24.220;2023-04-07T08:29:15;97694.38;;;11.87;36.73
55066;BME280;40964;42.114;24.220;2023-04-07T08:31:41;97701.16;;;12.30;35.16
55066;BME280;40964;42.114;24.220;2023-04-07T08:34:06;97695.31;;;12.40;35.23
55066;BME280;40964;42.114;24.220;2023-04-07T08:36:31;97691.06;;;12.27;36.11
55066;BME280;40964;42.114;24.220;2023-04-07T08:38:57;97698.44;;;12.13;36.24
55066;BME280;40964;42.114;24.220;2023-04-07T08:41:38;97699.22;;;12.14;37.48
55066;BME280;40964;42.114;24.220;2023-04-07T08:44:04;97695.19;;;11.88;35.82
55066;BME280;40964;42.114;24.220;2023-04-07T08:46:32;97684.88;;;12.21;35.88
55066;BME280;40964;42.114;24.220;2023-04-07T08:48:59;97687.03;;;12.13;35.34
55066;BME280;40964;42.114;24.220;2023-04-07T08:51:29;97689.41;;;11.79;36.00
55066;BME280;40964;42.114;24.220;2023-04-07T08:54:12;97678.00;;;11.97;35.91
55066;BME280;40964;42.114;24.220;2023-04-07T08:56:38;97688.94;;;11.71;35.42
55066;BME280;40964;42.114;24.220;2023-04-07T08:59:11;97691.53;;;12.01;35.16
55066;BME280;40964;42.114;24.220;2023-04-07T09:01:38;97683.72;;;12.53;37.74
55066;BME280;40964;42.114;24.220;2023-04-07T09:04:04;97684.03;;;12.79;35.27
55066;BME280;40964;42.114;24.220;2023-04-07T09:06:32;97676.47;;;12.71;37.47
55066;BME280;40964;42.114;24.220;2023-04-07T09:08:58;97679.59;;;12.45;36.28
55066;BME280;40964;42.114;24.220;2023-04-07T09:11:28;97678.81;;;12.09;36.68
55066;BME280;40964;42.114;24.220;2023-04-07T09:13:55;97683.66;;;11.71;35.27
55066;BME280;40964;42.114;24.220;2023-04-07T09:16:21;97672.19;;;11.65;36.07
55066;BME280;40964;42.114;24.220;2023-04-07T09:18:48;97673.31;;;12.23;36.14
55066;BME280;40964;42.114;24.220;2023-04-07T09:21:14;97656.56;;;12.40;34.89
55066;BME280;40964;42.114;24.220;2023-04-07T09:23:41;97660.00;;;12.93;34.60
55066;BME280;40964;42.114;24.220;2023-04-07T09:28:48;97660.00;;;13.33;36.17
55066;BME280;40964;42.114;24.220;2023-04-07T09:31:17;97650.47;;;13.32;32.70
55066;BME280;40964;42.114;24.220;2023-04-07T09:33:43;97661.09;;;13.08;34.40
55066;BME280;40964;42.114;24.220;2023-04-07T09:36:09;97661.09;;;13.08;33.44
55066;BME280;40964;42.114;24.220;2023-04-07T09:38:39;97663.19;;;13.06;35.77
55066;BME280;40964;42.114;24.220;2023-04-07T09:41:15;97668.81;;;13.39;35.49
55066;BME280;40964;42.114;24.220;2023-04-07T09:43:45;97662.47;;;12.71;35.22
55066;BME280;40964;42.114;24.220;2023-04-07T09:46:12;97664.69;;;12.50;34.61
55066;BME280;40964;42.114;24.220;2023-04-07T09:48:38;97656.44;;;12.59;36.36
55066;BME280;40964;42.114;24.220;2023-04-07T09:53:44;97676.13;;;12.79;34.35
55066;BME280;40964;42.114;24.220;2023-04-07T09:56:12;97673.47;;;13.20;33.76
55066;BME280;40964;42.114;24.220;2023-04-07T09:58:39;97671.69;;;13.37;33.97
55066;BME280;40964;42.114;24.220;2023-04-07T10:01:07;97673.16;;;13.45;33.30
55066;BME280;40964;42.114;24.220;2023-04-07T10:03:37;97671.19;;;13.69;35.71
55066;BME280;40964;42.114;24.220;2023-04-07T10:06:03;97662.13;;;14.15;38.48
55066;BME280;40964;42.114;24.220;2023-04-07T10:08:32;97659.50;;;14.37;32.17
55066;BME280;40964;42.114;24.220;2023-04-07T10:10:58;97661.66;;;13.84;32.02
55066;BME280;40964;42.114;24.220;2023-04-07T10:13:26;97664.47;;;13.04;34.49
55066;BME280;40964;42.114;24.220;2023-04-07T10:15:52;97658.41;;;13.32;34.91
55066;BME280;40964;42.114;24.220;2023-04-07T10:18:19;97661.81;;;13.78;34.14
55066;BME280;40964;42.114;24.220;2023-04-07T10:20:47;97660.84;;;13.67;33.14
55066;BME280;40964;42.114;24.220;2023-04-07T10:23:33;97660.28;;;13.65;34.31
55066;BME280;40964;42.114;24.220;2023-04-07T10:26:04;97659.66;;;13.58;34.72
55066;BME280;40964;42.114;24.220;2023-04-07T10:28:32;97658.84;;;13.57;34.12
55066;BME280;40964;42.114;24.220;2023-04-07T10:30:59;97657.66;;;13.82;32.84
55066;BME280;40964;42.114;24.220;2023-04-07T10:33:51;97656.41;;;13.56;32.36
55066;BME280;40964;42.114;24.220;2023-04-07T10:36:18;97655.59;;;13.39;33.76
55066;BME280;40964;42.114;24.220;2023-04-07T10:41:35;97647.53;;;13.17;34.21
55066;BME280;40964;42.114;24.220;2023-04-07T10:44:05;97646.59;;;13.51;35.11
55066;BME280;40964;42.114;24.220;2023-04-07T10:49:11;97638.59;;;13.97;34.63
55066;BME280;40964;42.114;24.220;2023-04-07T10:51:38;97643.38;;;13.83;34.13
55066;BME280;40964;42.114;24.220;2023-04-07T10:54:22;97635.13;;;13.96;34.14
55066;BME280;40964;42.114;24.220;2023-04-07T10:59:28;97634.72;;;14.21;34.78
55066;BME280;40964;42.114;24.220;2023-04-07T11:04:39;97624.75;;;14.67;32.56
55066;BME280;40964;42.114;24.220;2023-04-07T11:07:05;97627.28;;;14.79;34.90
55066;BME280;40964;42.114;24.220;2023-04-07T11:09:30;97636.31;;;14.83;32.93
55066;BME280;40964;42.114;24.220;2023-04-07T11:11:56;97632.50;;;14.52;34.36
55066;BME280;40964;42.114;24.220;2023-04-07T11:14:32;97614.31;;;13.83;34.04
55066;BME280;40964;42.114;24.220;2023-04-07T11:16:58;97638.19;;;13.88;34.24
55066;BME280;40964;42.114;24.220;2023-04-07T11:19:25;97636.25;;;13.50;35.17
55066;BME280;40964;42.114;24.220;2023-04-07T11:22:17;97632.19;;;13.76;34.97
55066;BME280;40964;42.114;24.220;2023-04-07T11:24:45;97628.50;;;13.77;34.61
55066;BME280;40964;42.114;24.220;2023-04-07T11:27:14;97627.06;;;13.86;35.50
55066;BME280;40964;42.114;24.220;2023-04-07T11:29:41;97623.69;;;13.90;34.75
55066;BME280;40964;42.114;24.220;2023-04-07T11:32:06;97624.47;;;14.08;34.75
55066;BME280;40964;42.114;24.220;2023-04-07T11:34:34;97624.22;;;14.09;35.03
55066;BME280;40964;42.114;24.220;2023-04-07T11:37:25;97628.53;;;14.15;33.69
55066;BME280;40964;42.114;24.220;2023-04-07T11:42:36;97629.16;;;14.39;34.14
55066;BME280;40964;42.114;24.220;2023-04-07T11:45:15;97627.53;;;14.77;33.52
55066;BME280;40964;42.114;24.220;2023-04-07T11:47:41;97629.41;;;14.82;31.24
55066;BME280;40964;42.114;24.220;2023-04-07T11:50:06;97621.63;;;15.19;32.41
55066;BME280;40964;42.114;24.220;2023-04-07T11:52:48;97617.22;;;14.81;33.74
55066;BME280;40964;42.114;24.220;2023-04-07T11:55:18;97616.97;;;14.82;33.05
55066;BME280;40964;42.114;24.220;2023-04-07T11:57:43;97619.75;;;14.92;32.94
55066;BME280;40964;42.114;24.220;2023-04-07T12:00:11;97616.53;;;15.12;33.99
55066;BME280;40964;42.114;24.220;2023-04-07T12:02:37;97612.47;;;14.83;32.01
55066;BME280;40964;42.114;24.220;2023-04-07T12:05:03;97608.84;;;14.45;33.32
55066;BME280;40964;42.114;24.220;2023-04-07T12:07:29;97620.78;;;14.91;34.56
55066;BME280;40964;42.114;24.220;2023-04-07T12:09:54;97614.66;;;15.13;32.96
55066;BME280;40964;42.114;24.220;2023-04-07T12:12:28;97610.56;;;15.27;32.87
55066;BME280;40964;42.114;24.220;2023-04-07T12:14:55;97620.66;;;15.03;32.46
55066;BME280;40964;42.114;24.220;2023-04-07T12:17:25;97617.63;;;14.67;32.13
55066;BME280;40964;42.114;24.220;2023-04-07T12:19:50;97622.47;;;14.37;31.29
55066;BME280;40964;42.114;24.220;2023-04-07T12:22:17;97614.84;;;14.57;32.84
55066;BME280;40964;42.114;24.220;2023-04-07T12:24:42;97621.66;;;14.97;31.72
55066;BME280;40964;42.114;24.220;2023-04-07T12:27:08;97615.72;;;15.39;32.55
55066;BME280;40964;42.114;24.220;2023-04-07T12:29:34;97611.06;;;15.24;32.46
55066;BME280;40964;42.114;24.220;2023-04-07T12:34:36;97602.22;;;15.72;32.47
55066;BME280;40964;42.114;24.220;2023-04-07T12:37:02;97602.47;;;15.66;31.53
55066;BME280;40964;42.114;24.220;2023-04-07T12:39:27;97606.97;;;15.38;32.00
55066;BME280;40964;42.114;24.220;2023-04-07T12:41:53;97598.25;;;15.16;33.05
55066;BME280;40964;42.114;24.220;2023-04-07T12:44:18;97598.59;;;15.51;33.61
55066;BME280;40964;42.114;24.220;2023-04-07T12:46:44;97604.97;;;15.82;34.30
55066;BME280;40964;42.114;24.220;2023-04-07T12:49:10;97595.19;;;15.56;31.49
55066;BME280;40964;42.114;24.220;2023-04-07T12:51:35;97597.28;;;15.54;31.46
55066;BME280;40964;42.114;24.220;2023-04-07T12:54:01;97601.53;;;15.23;31.85
55066;BME280;40964;42.114;24.220;2023-04-07T12:56:28;97608.97;;;15.26;32.40
55066;BME280;40964;42.114;24.220;2023-04-07T12:58:53;97605.06;;;15.07;31.89
55066;BME280;40964;42.114;24.220;2023-04-07T13:01:19;97600.16;;;14.93;31.94
55066;BME280;40964;42.114;24.220;2023-04-07T13:03:45;97596.25;;;14.52;31.83
55066;BME280;40964;42.114;24.220;2023-04-07T13:06:11;97597.00;;;14.47;31.96
55066;BME280;40964;42.114;24.220;2023-04-07T13:08:38;97593.28;;;14.92;33.90
55066;BME280;40964;42.114;24.220;2023-04-07T13:11:03;97589.03;;;15.50;34.27
55066;BME280;40964;42.114;24.220;2023-04-07T13:13:30;97589.13;;;15.93;34.58
55066;BME280;40964;42.114;24.220;2023-04-07T13:15:56;97583.97;;;16.18;32.81
55066;BME280;40964;42.114;24.220;2023-04-07T13:18:22;97587.19;;;15.83;29.95
55066;BME280;40964;42.114;24.220;2023-04-07T13:20:47;97575.53;;;15.84;30.03
55066;BME280;40964;42.114;24.220;2023-04-07T13:23:13;97581.28;;;16.13;29.42